createdAt,value
2018-05-14T00:01:14.234Z,10.97
2018-05-14T00:03:41.014Z,11.87
2018-05-14T00:06:08.407Z,9.43
2018-05-14T00:08:35.874Z,6.87
2018-05-14T00:11:03.340Z,8.30
2018-05-14T00:13:30.769Z,7.53
2018-05-14T00:15:57.479Z,8.70
2018-05-14T00:18:24.170Z,10.93
2018-05-14T00:20:51.591Z,9.73
2018-05-14T00:23:18.269Z,9.67
2018-05-14T00:25:44.959Z,6.00
2018-05-14T00:28:11.636Z,8.80
2018-05-14T00:30:39.056Z,5.57
2018-05-14T00:33:05.723Z,5.53
2018-05-14T00:35:33.156Z,9.10
2018-05-14T00:37:59.819Z,7.10
2018-05-14T00:40:27.247Z,7.30
2018-05-14T00:42:53.965Z,6.27
2018-05-14T00:45:20.683Z,7.23
2018-05-14T00:47:47.349Z,10.40
2018-05-14T00:50:14.044Z,10.53
2018-05-14T00:52:40.723Z,12.73
2018-05-14T00:55:16.560Z,10.53
2018-05-14T00:57:43.728Z,7.50
2018-05-14T01:00:10.518Z,8.43
2018-05-14T01:02:37.936Z,6.30
2018-05-14T01:05:04.696Z,11.57
2018-05-14T01:07:31.371Z,10.63
2018-05-14T01:09:58.069Z,7.33
2018-05-14T01:12:25.558Z,12.17
2018-05-14T01:14:52.241Z,9.60
2018-05-14T01:17:18.919Z,4.17
2018-05-14T01:19:46.356Z,5.67
2018-05-14T01:22:13.048Z,8.07
2018-05-14T01:24:39.778Z,5.50
2018-05-14T01:27:06.464Z,6.90
2018-05-14T01:29:33.220Z,6.13
2018-05-14T01:32:00.636Z,5.53
2018-05-14T01:34:27.308Z,9.37
2018-05-14T01:36:53.983Z,7.40
2018-05-14T01:39:20.686Z,7.27
2018-05-14T01:41:47.379Z,5.07
2018-05-14T01:44:14.059Z,10.27
2018-05-14T01:46:40.744Z,6.37
2018-05-14T01:49:07.434Z,6.60
2018-05-14T01:51:34.139Z,8.73
2018-05-14T01:54:00.829Z,10.27
2018-05-14T01:56:28.286Z,5.53
2018-05-14T01:58:55.732Z,3.50
2018-05-14T02:01:22.448Z,4.87
2018-05-14T02:03:49.143Z,2.80
2018-05-14T02:06:15.835Z,1.43
2018-05-14T02:08:42.519Z,0.80
2018-05-14T02:11:09.264Z,1.27
2018-05-14T02:13:36.719Z,1.87
2018-05-14T02:16:03.446Z,1.93
2018-05-14T02:18:30.149Z,2.23
2018-05-14T02:20:56.836Z,2.07
2018-05-14T02:23:23.508Z,1.67
2018-05-14T02:25:50.198Z,1.10
2018-05-14T02:28:16.886Z,1.17
2018-05-14T02:30:43.568Z,3.17
2018-05-14T02:33:10.991Z,1.37
2018-05-14T02:35:37.683Z,2.93
2018-05-14T02:38:04.379Z,1.73
2018-05-14T02:40:31.849Z,4.30
2018-05-14T02:42:59.305Z,1.27
2018-05-14T02:45:26.716Z,2.10
2018-05-14T02:47:53.417Z,3.60
2018-05-14T02:50:20.172Z,0.80
2018-05-14T02:52:47.585Z,0.90
2018-05-14T02:55:15.016Z,1.43
2018-05-14T02:57:41.706Z,1.80
2018-05-14T03:00:08.458Z,2.40
2018-05-14T03:02:35.139Z,1.47
2018-05-14T03:05:01.847Z,3.33
2018-05-14T03:07:28.594Z,2.60
2018-05-14T03:09:55.268Z,2.73
2018-05-14T03:12:23.123Z,4.27
2018-05-14T03:14:53.688Z,1.93
2018-05-14T03:17:21.115Z,2.50
2018-05-14T03:19:47.795Z,2.47
2018-05-14T03:22:14.476Z,4.00
2018-05-14T03:24:41.166Z,1.93
2018-05-14T03:27:07.878Z,2.60
2018-05-14T03:29:35.309Z,3.70
2018-05-14T03:32:01.991Z,2.13
2018-05-14T03:34:29.476Z,3.50
2018-05-14T03:36:56.170Z,3.97
2018-05-14T03:39:23.608Z,3.80
2018-05-14T03:41:50.284Z,4.47
2018-05-14T03:44:17.695Z,4.40
2018-05-14T03:46:44.403Z,5.67
2018-05-14T03:49:11.108Z,6.37
2018-05-14T03:51:38.523Z,7.00
2018-05-14T03:54:05.218Z,4.90
2018-05-14T03:56:31.905Z,4.20
2018-05-14T03:59:16.917Z,4.63
2018-05-14T04:05:16.457Z,5.33
2018-05-14T04:07:43.168Z,5.20
2018-05-14T04:10:10.623Z,6.07
2018-05-14T04:12:39.763Z,4.53
2018-05-14T04:15:06.458Z,6.60
2018-05-14T04:17:33.898Z,4.23
2018-05-14T04:20:00.576Z,6.03
2018-05-14T04:22:27.279Z,3.30
2018-05-14T04:24:54.016Z,8.00
2018-05-14T04:27:20.723Z,5.37
2018-05-14T04:29:47.396Z,5.77
2018-05-14T04:32:14.116Z,6.53
2018-05-14T04:34:40.803Z,6.70
2018-05-14T04:37:07.492Z,4.50
2018-05-14T04:39:34.186Z,2.83
2018-05-14T04:42:00.908Z,6.87
2018-05-14T04:44:28.338Z,10.37
2018-05-14T04:46:55.024Z,4.53
2018-05-14T04:49:21.706Z,6.00
2018-05-14T04:51:48.395Z,6.47
2018-05-14T04:54:15.111Z,6.60
2018-05-14T04:56:42.532Z,5.83
2018-05-14T04:59:09.281Z,7.50
2018-05-14T05:01:35.918Z,5.37
2018-05-14T05:04:02.630Z,2.73
2018-05-14T05:06:29.387Z,6.00
2018-05-14T05:08:56.067Z,6.17
2018-05-14T05:11:23.582Z,7.17
2018-05-14T05:13:50.232Z,7.93
2018-05-14T05:16:17.720Z,4.37
2018-05-14T05:18:45.159Z,5.43
2018-05-14T05:21:11.839Z,6.23
2018-05-14T05:23:38.520Z,5.00
2018-05-14T05:26:05.234Z,6.73
2018-05-14T05:28:31.935Z,5.53
2018-05-14T05:30:59.376Z,6.10
2018-05-14T05:33:26.851Z,5.17
2018-05-14T05:35:53.568Z,5.10
2018-05-14T05:38:21.034Z,6.87
2018-05-14T05:40:48.540Z,6.40
2018-05-14T05:43:15.224Z,4.07
2018-05-14T05:45:41.900Z,8.83
2018-05-14T05:48:08.605Z,5.17
2018-05-14T05:50:36.040Z,6.37
2018-05-14T05:53:02.779Z,5.20
2018-05-14T05:55:29.452Z,6.37
2018-05-14T05:57:56.220Z,6.43
2018-05-14T06:00:22.919Z,5.93
2018-05-14T06:02:50.352Z,4.67
2018-05-14T06:05:17.051Z,2.90
2018-05-14T06:07:43.749Z,8.37
2018-05-14T06:10:11.217Z,7.00
2018-05-14T06:12:38.631Z,3.67
2018-05-14T06:15:05.331Z,4.87
2018-05-14T06:17:32.041Z,3.67
2018-05-14T06:19:59.484Z,5.07
2018-05-14T06:22:26.241Z,8.43
2018-05-14T06:24:52.874Z,5.63
2018-05-14T06:27:20.293Z,3.53
2018-05-14T06:29:46.991Z,5.40
2018-05-14T06:32:13.696Z,3.70
2018-05-14T06:34:40.384Z,8.73
2018-05-14T06:37:07.072Z,3.07
2018-05-14T06:39:33.763Z,3.53
2018-05-14T06:42:00.479Z,5.33
2018-05-14T06:44:27.240Z,3.33
2018-05-14T06:46:54.680Z,6.37
2018-05-14T06:49:21.372Z,4.23
2018-05-14T06:51:48.055Z,4.90
2018-05-14T06:54:14.734Z,3.47
2018-05-14T06:56:41.444Z,5.77
2018-05-14T06:59:08.144Z,4.83
2018-05-14T07:01:36.027Z,5.33
2018-05-14T07:04:02.829Z,5.77
2018-05-14T07:06:29.772Z,4.80
2018-05-14T07:08:56.754Z,4.43
2018-05-14T07:11:23.742Z,4.30
2018-05-14T07:13:50.719Z,4.93
2018-05-14T07:16:17.679Z,5.57
2018-05-14T07:18:45.419Z,3.37
2018-05-14T07:21:39.294Z,3.47
2018-05-14T07:24:06.319Z,3.00
2018-05-14T07:26:33.319Z,3.73
2018-05-14T07:29:00.964Z,2.10
2018-05-14T07:31:28.704Z,4.43
2018-05-14T07:33:55.732Z,5.20
2018-05-14T07:36:22.739Z,5.23
2018-05-14T07:38:50.427Z,6.80
2018-05-14T07:41:17.447Z,2.63
2018-05-14T07:43:45.219Z,7.87
2018-05-14T07:46:12.199Z,7.17
2018-05-14T07:48:39.166Z,5.53
2018-05-14T07:51:06.202Z,3.23
2018-05-14T07:53:33.162Z,6.63
2018-05-14T07:56:00.871Z,6.97
2018-05-14T07:58:27.853Z,2.03
2018-05-14T08:00:54.822Z,4.63
2018-05-14T08:03:22.594Z,3.70
2018-05-14T08:05:50.319Z,2.60
2018-05-14T08:08:17.332Z,4.97
2018-05-14T08:10:44.280Z,5.33
2018-05-14T08:13:11.239Z,3.90
2018-05-14T08:15:38.225Z,4.30
2018-05-14T08:18:06.017Z,5.17
2018-05-14T08:20:35.400Z,4.43
2018-05-14T08:23:03.115Z,3.97
2018-05-14T08:25:30.080Z,3.93
2018-05-14T08:27:57.072Z,3.47
2018-05-14T08:30:24.031Z,5.17
2018-05-14T08:32:51.036Z,5.57
2018-05-14T08:35:18.750Z,4.80
2018-05-14T08:37:45.740Z,4.33
2018-05-14T08:40:13.465Z,5.73
2018-05-14T08:42:40.446Z,5.47
2018-05-14T08:45:08.184Z,4.77
2018-05-14T08:47:35.194Z,6.13
2018-05-14T08:50:02.166Z,3.67
2018-05-14T08:52:29.152Z,4.80
2018-05-14T08:54:56.871Z,5.37
2018-05-14T08:57:23.811Z,5.60
2018-05-14T08:59:50.767Z,4.83
2018-05-14T09:02:17.771Z,4.53
2018-05-14T09:04:44.752Z,6.07
2018-05-14T09:07:11.731Z,5.90
2018-05-14T09:09:38.684Z,5.27
2018-05-14T09:12:06.379Z,5.93
2018-05-14T09:14:33.367Z,6.87
2018-05-14T09:17:00.337Z,6.83
2018-05-14T09:19:28.802Z,6.03
2018-05-14T09:21:56.597Z,7.43
2018-05-14T09:24:23.578Z,6.47
2018-05-14T09:26:50.566Z,3.00
2018-05-14T09:29:18.260Z,4.57
2018-05-14T09:31:45.224Z,5.23
2018-05-14T09:34:12.186Z,9.07
2018-05-14T09:36:39.151Z,5.00
2018-05-14T09:39:06.173Z,4.57
2018-05-14T09:41:33.169Z,6.70
2018-05-14T09:44:00.868Z,6.50
2018-05-14T09:46:27.884Z,5.73
2018-05-14T09:48:54.896Z,6.10
2018-05-14T09:51:21.886Z,5.23
2018-05-14T09:53:48.901Z,4.77
2018-05-14T09:56:16.623Z,6.90
2018-05-14T09:58:43.641Z,6.60
2018-05-14T10:01:10.583Z,8.30
2018-05-14T10:03:37.525Z,4.60
2018-05-14T10:06:04.532Z,6.03
2018-05-14T10:08:31.504Z,5.20
2018-05-14T10:10:59.224Z,8.17
2018-05-14T10:13:26.213Z,5.90
2018-05-14T10:15:53.948Z,7.80
2018-05-14T10:18:20.911Z,4.77
2018-05-14T10:20:49.484Z,7.70
2018-05-14T10:23:18.779Z,5.67
2018-05-14T10:25:45.761Z,5.00
2018-05-14T10:28:12.724Z,6.77
2018-05-14T10:30:40.419Z,6.33
2018-05-14T10:33:07.371Z,14.07
2018-05-14T10:35:34.366Z,6.33
2018-05-14T10:38:01.334Z,6.87
2018-05-14T10:40:28.356Z,4.37
2018-05-14T10:42:55.369Z,5.43
2018-05-14T10:45:23.087Z,5.43
2018-05-14T10:47:50.079Z,5.03
2018-05-14T10:50:17.806Z,6.70
2018-05-14T10:52:44.812Z,4.90
2018-05-14T10:55:11.800Z,6.97
2018-05-14T10:57:38.758Z,4.63
2018-05-14T11:00:05.811Z,3.47
2018-05-14T11:02:32.751Z,5.33
2018-05-14T11:04:59.727Z,5.40
2018-05-14T11:07:27.431Z,6.07
2018-05-14T11:09:54.389Z,9.10
2018-05-14T11:12:21.379Z,3.50
2018-05-14T11:14:48.369Z,6.17
2018-05-14T11:17:15.324Z,8.30
2018-05-14T11:19:42.364Z,5.63
2018-05-14T11:22:09.369Z,1.83
2018-05-14T11:24:40.153Z,4.10
2018-05-14T11:27:07.124Z,5.23
2018-05-14T11:29:34.821Z,3.83
2018-05-14T11:32:01.822Z,6.40
2018-05-14T11:34:28.746Z,3.23
2018-05-14T11:36:55.712Z,3.07
2018-05-14T11:39:22.684Z,6.50
2018-05-14T11:41:49.656Z,3.90
2018-05-14T11:44:16.654Z,3.53
2018-05-14T11:46:44.356Z,4.17
2018-05-14T11:49:11.337Z,4.53
2018-05-14T11:51:38.357Z,1.50
2018-05-14T11:54:05.337Z,3.77
2018-05-14T11:56:32.291Z,7.17
2018-05-14T11:58:59.364Z,3.40
2018-05-14T12:01:26.336Z,4.17
2018-05-14T12:03:53.326Z,4.50
2018-05-14T12:06:20.318Z,2.20
2018-05-14T12:08:47.351Z,4.53
2018-05-14T12:11:14.373Z,3.07
2018-05-14T12:13:42.136Z,3.03
2018-05-14T12:16:09.974Z,2.70
2018-05-14T12:18:36.923Z,3.37
2018-05-14T12:21:03.902Z,2.33
2018-05-14T12:23:32.389Z,1.63
2018-05-14T12:26:00.164Z,4.07
2018-05-14T12:28:27.164Z,2.93
2018-05-14T12:30:54.156Z,2.90
2018-05-14T12:33:21.209Z,3.53
2018-05-14T12:35:48.186Z,3.33
2018-05-14T12:38:15.182Z,2.80
2018-05-14T12:40:42.171Z,2.33
2018-05-14T12:43:09.149Z,3.57
2018-05-14T12:45:36.859Z,3.47
2018-05-14T12:48:03.881Z,4.20
2018-05-14T12:50:31.828Z,3.47
2018-05-14T12:52:58.791Z,2.63
2018-05-14T12:55:25.723Z,5.43
2018-05-14T12:57:53.452Z,3.00
2018-05-14T13:00:20.411Z,2.53
2018-05-14T13:02:47.419Z,4.13
2018-05-14T13:05:14.391Z,5.00
2018-05-14T13:07:41.363Z,3.60
2018-05-14T13:10:09.111Z,3.93
2018-05-14T13:12:36.096Z,4.43
2018-05-14T13:15:03.195Z,3.20
2018-05-14T13:17:30.163Z,4.20
2018-05-14T13:19:57.873Z,4.27
2018-05-14T13:22:24.889Z,5.03
2018-05-14T13:24:51.863Z,4.60
2018-05-14T13:27:19.639Z,5.07
2018-05-14T13:29:46.655Z,4.50
2018-05-14T13:32:13.669Z,5.90
2018-05-14T13:34:41.444Z,2.37
2018-05-14T13:37:08.407Z,4.00
2018-05-14T13:39:35.437Z,3.30
2018-05-14T13:42:03.171Z,4.27
2018-05-14T13:44:30.222Z,3.47
2018-05-14T13:46:57.179Z,8.57
2018-05-14T13:49:25.025Z,4.33
2018-05-14T13:51:51.989Z,3.50
2018-05-14T13:54:19.706Z,3.07
2018-05-14T13:56:46.657Z,3.13
2018-05-14T13:59:13.614Z,3.27
2018-05-14T14:01:40.620Z,3.57
2018-05-14T14:04:07.567Z,6.97
2018-05-14T14:06:34.560Z,3.37
2018-05-14T14:09:01.547Z,3.83
2018-05-14T14:11:28.553Z,3.70
2018-05-14T14:13:55.520Z,5.10
2018-05-14T14:16:22.665Z,2.37
2018-05-14T14:18:50.408Z,3.70
2018-05-14T14:21:17.347Z,2.17
2018-05-14T14:23:44.463Z,5.83
2018-05-14T14:26:11.384Z,3.33
2018-05-14T14:28:38.435Z,2.70
2018-05-14T14:31:05.455Z,2.90
2018-05-14T14:33:33.184Z,5.73
2018-05-14T14:36:00.241Z,6.63
2018-05-14T14:38:27.273Z,4.17
2018-05-14T14:40:55.251Z,5.47
2018-05-14T14:43:22.480Z,8.50
2018-05-14T14:45:49.497Z,6.30
2018-05-14T14:48:16.591Z,5.60
2018-05-14T14:50:43.609Z,5.10
2018-05-14T14:53:10.656Z,8.10
2018-05-14T14:55:37.679Z,5.17
2018-05-14T14:58:04.432Z,5.73
2018-05-14T15:00:31.159Z,7.07
2018-05-14T15:02:58.625Z,5.57
2018-05-14T15:05:25.332Z,3.47
2018-05-14T15:07:52.020Z,7.10
2018-05-14T15:10:18.787Z,3.80
2018-05-14T15:12:45.506Z,8.97
2018-05-14T15:15:12.945Z,6.33
2018-05-14T15:17:39.625Z,7.23
2018-05-14T15:20:06.381Z,6.77
2018-05-14T15:22:33.087Z,6.67
2018-05-14T15:24:59.781Z,9.60
2018-05-14T15:27:26.563Z,11.13
2018-05-14T15:29:53.292Z,11.93
2018-05-14T15:32:19.979Z,8.00
2018-05-14T15:34:46.912Z,8.97
2018-05-14T15:37:13.627Z,8.50
2018-05-14T15:39:40.345Z,6.47
2018-05-14T15:42:07.077Z,8.30
2018-05-14T15:44:33.795Z,5.40
2018-05-14T15:47:01.242Z,8.33
2018-05-14T15:49:28.691Z,7.37
2018-05-14T15:51:55.459Z,6.77
2018-05-14T15:54:22.180Z,5.07
2018-05-14T15:56:48.917Z,9.00
2018-05-14T15:59:15.603Z,7.17
2018-05-14T16:01:42.306Z,7.43
2018-05-14T16:04:09.762Z,7.77
2018-05-14T16:06:37.352Z,9.23
2018-05-14T16:09:05.028Z,8.47
2018-05-14T16:11:31.756Z,10.63
2018-05-14T16:13:58.495Z,8.83
2018-05-14T16:16:25.224Z,11.07
2018-05-14T16:18:51.919Z,7.13
2018-05-14T16:21:18.609Z,8.07
2018-05-14T16:23:45.374Z,11.60
2018-05-14T16:26:12.127Z,7.60
2018-05-14T16:28:38.854Z,13.03
2018-05-14T16:31:05.584Z,11.77
2018-05-14T16:33:32.296Z,8.87
2018-05-14T16:35:59.019Z,10.40
2018-05-14T16:38:26.499Z,7.40
2018-05-14T16:40:53.244Z,11.60
2018-05-14T16:43:19.952Z,5.30
2018-05-14T16:45:47.417Z,9.57
2018-05-14T16:48:14.111Z,9.90
2018-05-14T16:50:40.871Z,8.13
2018-05-14T16:53:07.564Z,12.23
2018-05-14T16:55:34.284Z,7.33
2018-05-14T16:58:01.030Z,11.17
2018-05-14T17:00:28.476Z,6.80
2018-05-14T17:02:55.167Z,9.67
2018-05-14T17:05:21.913Z,8.03
2018-05-14T17:07:48.652Z,7.27
2018-05-14T17:10:15.445Z,7.73
2018-05-14T17:12:42.085Z,7.57
2018-05-14T17:15:08.800Z,5.63
2018-05-14T17:17:35.542Z,7.73
2018-05-14T17:20:02.289Z,6.27
2018-05-14T17:22:29.003Z,10.20
2018-05-14T17:24:56.447Z,7.97
2018-05-14T17:27:23.157Z,6.83
2018-05-14T17:29:49.880Z,12.43
2018-05-14T17:32:16.602Z,12.00
2018-05-14T17:34:43.279Z,7.63
2018-05-14T17:37:10.007Z,9.03
2018-05-14T17:39:36.699Z,6.23
2018-05-14T17:42:04.177Z,9.37
2018-05-14T17:44:30.923Z,9.27
2018-05-14T17:46:57.682Z,8.40
2018-05-14T17:49:24.377Z,9.77
2018-05-14T17:51:51.842Z,8.33
2018-05-14T17:54:19.316Z,7.77
2018-05-14T17:56:46.025Z,8.47
2018-05-14T17:59:13.452Z,8.07
2018-05-14T18:01:42.877Z,9.70
2018-05-14T18:04:11.046Z,11.07
2018-05-14T18:06:37.784Z,5.70
2018-05-14T18:09:05.284Z,15.77
2018-05-14T18:11:32.047Z,6.37
2018-05-14T18:13:58.729Z,9.50
2018-05-14T18:16:25.483Z,5.70
2018-05-14T18:18:52.191Z,6.37
2018-05-14T18:21:24.959Z,6.80
2018-05-14T18:23:51.654Z,4.17
2018-05-14T18:26:18.404Z,7.63
2018-05-14T18:28:49.188Z,8.20
2018-05-14T18:31:21.951Z,4.97
2018-05-14T18:34:02.099Z,8.03
2018-05-14T18:36:28.824Z,5.10
2018-05-14T18:38:55.525Z,8.03
2018-05-14T18:41:22.939Z,12.93
2018-05-14T18:43:49.623Z,10.93
2018-05-14T18:46:16.311Z,6.23
2018-05-14T18:48:43.057Z,5.30
2018-05-14T18:51:09.762Z,3.90
2018-05-14T18:53:36.454Z,7.83
2018-05-14T18:56:03.297Z,6.20
2018-05-14T18:58:30.754Z,5.93
2018-05-14T19:00:58.238Z,7.03
2018-05-14T19:03:24.940Z,3.83
2018-05-14T19:05:51.690Z,7.23
2018-05-14T19:08:18.448Z,5.43
2018-05-14T19:10:51.861Z,4.40
2018-05-14T19:13:18.612Z,4.37
2018-05-14T19:15:51.350Z,6.43
2018-05-14T19:18:18.783Z,7.33
2018-05-14T19:20:45.497Z,7.10
2018-05-14T19:23:18.285Z,7.20
2018-05-14T19:25:44.985Z,6.63
2018-05-14T19:28:17.939Z,6.33
2018-05-14T19:30:44.597Z,6.90
2018-05-14T19:33:12.104Z,6.43
2018-05-14T19:35:44.835Z,9.57
2018-05-14T19:38:12.339Z,6.40
2018-05-14T19:40:45.047Z,12.77
2018-05-14T19:43:11.904Z,10.93
2018-05-14T19:45:38.668Z,7.43
2018-05-14T19:48:05.395Z,8.87
2018-05-14T19:50:32.131Z,11.43
2018-05-14T19:52:59.667Z,8.97
2018-05-14T19:55:26.370Z,10.33
2018-05-14T19:57:53.080Z,8.13
2018-05-14T20:00:19.780Z,11.73
2018-05-14T20:02:46.487Z,14.80
2018-05-14T20:05:13.211Z,13.40
2018-05-14T20:07:39.959Z,11.30
2018-05-14T20:10:06.684Z,10.93
2018-05-14T20:12:34.367Z,7.87
2018-05-14T20:15:01.099Z,9.40
2018-05-14T20:17:27.817Z,12.77
2018-05-14T20:19:54.525Z,11.83
2018-05-14T20:22:21.993Z,11.13
2018-05-14T20:24:49.479Z,11.27
2018-05-14T20:27:16.219Z,10.33
2018-05-14T20:29:42.947Z,8.03
2018-05-14T20:32:09.692Z,10.17
2018-05-14T20:34:36.380Z,13.03
2018-05-14T20:37:03.132Z,7.43
2018-05-14T20:39:29.871Z,8.00
2018-05-14T20:41:56.577Z,8.83
2018-05-14T20:44:23.327Z,12.03
2018-05-14T20:46:50.029Z,8.87
2018-05-14T20:49:16.744Z,7.30
2018-05-14T20:51:43.981Z,9.57
2018-05-14T20:54:11.561Z,12.23
2018-05-14T20:56:38.379Z,8.47
2018-05-14T20:59:05.924Z,9.17
2018-05-14T21:01:32.691Z,9.93
2018-05-14T21:04:00.232Z,8.43
2018-05-14T21:06:27.385Z,15.10
2018-05-14T21:08:54.907Z,10.57
2018-05-14T21:11:21.647Z,11.43
2018-05-14T21:13:48.344Z,7.57
2018-05-14T21:16:15.797Z,9.63
2018-05-14T21:18:43.271Z,7.43
2018-05-14T21:21:10.081Z,10.77
2018-05-14T21:23:37.543Z,6.80
2018-05-14T21:26:04.996Z,14.40
2018-05-14T21:28:32.531Z,9.30
2018-05-14T21:31:00.214Z,8.90
2018-05-14T21:33:28.231Z,7.13
2018-05-14T21:35:55.022Z,13.40
2018-05-14T21:38:22.544Z,8.10
2018-05-14T21:40:49.325Z,8.97
2018-05-14T21:43:16.863Z,8.50
2018-05-14T21:45:43.631Z,7.07
2018-05-14T21:48:11.171Z,6.10
2018-05-14T21:50:38.748Z,13.20
2018-05-14T21:53:05.560Z,7.97
2018-05-14T21:55:32.354Z,8.13
2018-05-14T21:57:59.361Z,6.33
2018-05-14T22:00:26.931Z,8.60
2018-05-14T22:02:55.126Z,8.63
2018-05-14T22:05:21.893Z,8.83
2018-05-14T22:07:48.686Z,9.90
2018-05-14T22:10:16.199Z,9.07
2018-05-14T22:12:42.968Z,5.90
2018-05-14T22:15:09.779Z,7.97
2018-05-14T22:17:36.569Z,10.40
2018-05-14T22:20:04.117Z,5.63
2018-05-14T22:22:31.666Z,9.73
2018-05-14T22:24:59.171Z,9.97
2018-05-14T22:27:25.984Z,8.63
2018-05-14T22:29:53.544Z,9.57
2018-05-14T22:32:21.063Z,11.90
2018-05-14T22:34:47.854Z,8.97
2018-05-14T22:37:15.011Z,9.03
2018-05-14T22:39:41.820Z,8.03
2018-05-14T22:42:08.527Z,8.50
2018-05-14T22:44:35.216Z,9.03
2018-05-14T22:47:01.939Z,7.60
2018-05-14T22:49:28.657Z,10.67
2018-05-14T22:51:55.374Z,7.63
2018-05-14T22:54:35.271Z,10.80
2018-05-14T22:57:02.797Z,5.20
2018-05-14T22:59:29.523Z,6.17
2018-05-14T23:01:56.219Z,10.00
2018-05-14T23:04:22.919Z,9.13
2018-05-14T23:06:49.619Z,11.57
2018-05-14T23:09:16.307Z,8.53
2018-05-14T23:11:43.019Z,6.73
2018-05-14T23:14:09.719Z,12.80
2018-05-14T23:16:36.427Z,9.20
2018-05-14T23:19:03.118Z,8.60
2018-05-14T23:21:29.826Z,8.50
2018-05-14T23:23:57.264Z,9.07
2018-05-14T23:26:23.953Z,9.67
2018-05-14T23:28:50.676Z,10.33
2018-05-14T23:31:17.430Z,9.67
2018-05-14T23:33:44.651Z,11.13
2018-05-14T23:36:11.344Z,7.87
2018-05-14T23:38:38.052Z,8.93
2018-05-14T23:41:04.744Z,11.43
2018-05-14T23:43:31.441Z,9.27
2018-05-14T23:45:58.157Z,10.00
2018-05-14T23:48:24.832Z,10.63
2018-05-14T23:50:51.766Z,8.47
2018-05-14T23:53:18.448Z,8.50
2018-05-14T23:55:45.886Z,8.57
2018-05-14T23:58:12.691Z,10.87
